Impacts METAR Board
IDs:

KRSW - Ft Myers/SW Florida, FL, US

Updated at: 2000 UTC 21 Sep 2021
Potential Impact None Slight Moderate High
Time 21/08Z 21/09Z 21/10Z 21/11Z 21/12Z 21/13Z 21/14Z 21/15Z 21/16Z 21/17Z 21/18Z 21/19Z 21/20Z
Temp74 74 75 74 74 76 82 85 85 87 84 76 75
Dewpt72 72 73 73 73 73 73 74 74 73 73 73 72
Altim29.98 29.98 29.99 30.01 30.03 30.03 30.04 30.06 30.05 30.03 30.02 30.02 30.02
VIS10 10 1.75 1 8 10 10 10 10 10 10 5 10
CIG4 -- 2 2 3 -- -- -- 34 -- 60 60 110
CoverOVCSCTOVCOVXOVCSCTCLRFEWBKNCLRBKNOVCBKN
FltCatLIFRVFRLIFRLIFRLIFRVFRVFRVFRVFRVFRVFRMVFRVFR
WX----BRBR------------TSVCTS RA BR-RA
WDir060807040060120140240050
WSpd0 3 6 6 4 0 5 5 6 11 0 6
WGst-- -- -- -- -- -- -- -- -- -- -- -- --
Raw hourly METARs
KRSW 210753Z 00000KT 10SM OVC004 23/22 A2998 RMK AO2 SLP149 T02330222 $
KRSW 210900Z 06003KT 10SM SCT007 23/22 A2998 RMK AO2 T02330222 $
KRSW 211001Z 08006KT 1 3/4SM BR OVC002 24/23 A2999 RMK AO2 T02390228 $
KRSW 211053Z 07006KT 1SM BR VV002 23/23 A3001 RMK AO2 SLP158 T02330228
KRSW 211153Z 04004KT 8SM OVC003 23/23 A3003 RMK AO2 SLP166 T02330228 10239 20233 53017
KRSW 211253Z 00000KT 10SM SCT004 24/23 A3003 RMK AO2 SLP167 T02440228
KRSW 211353Z 06005KT 10SM CLR 28/23 A3004 RMK AO2 SLP171 T02780228
KRSW 211453Z 10SM FEW020 29/23 A3006 RMK AO2 SLP175 T02940233 53009
KRSW 211553Z 12005KT 10SM SCT026 BKN034 BKN047 29/23 A3005 RMK AO2 SLP173 T02940233
KRSW 211653Z 14006KT 10SM CLR 31/23 A3003 RMK AO2 LTG DSNT NE SLP167 T03060228
KRSW 211756Z 24011KT 10SM TS FEW027 SCT040 BKN060 29/23 A3002 RMK AO2 LTG DSNT N AND NE AND S TSB56 T02890228
KRSW 211853Z 00000KT 5SM VCTS RA BR FEW006 BKN060 OVC095 24/23 A3002 RMK AO2 WSHFT 1754 LTG DSNT ALQDS RAB1757 TSB1756E25 SLP163 P0016 T02440228
KRSW 211953Z 05006KT 10SM -RA FEW017 SCT030 BKN110 24/22 A3002 RMK AO2 LTG DSNT ALQDS TSB23E38 SLP164 P0007 T02390222



Page loaded:  20:57 UTC  |   01:57 PM Pacific  |   02:57 PM Mountain  |   03:57 PM Central  |   04:57 PM Eastern

 

ADVISORIES

FORECASTS

FORECASTS

OBSERVATIONS

USER TOOLS

ABOUT US